createdAt,value
2018-07-07T00:01:18.853Z,20.25
2018-07-07T00:03:47.432Z,20.35
2018-07-07T00:06:15.781Z,20.99
2018-07-07T00:08:44.148Z,21.14
2018-07-07T00:11:12.550Z,21.32
2018-07-07T00:13:40.904Z,20.90
2018-07-07T00:16:09.303Z,20.91
2018-07-07T00:18:37.669Z,21.09
2018-07-07T00:21:06.314Z,21.04
2018-07-07T00:23:34.677Z,20.94
2018-07-07T00:26:03.567Z,21.33
2018-07-07T00:28:32.596Z,20.93
2018-07-07T00:31:00.930Z,20.65
2018-07-07T00:33:29.569Z,20.60
2018-07-07T00:35:57.878Z,20.41
2018-07-07T00:38:26.162Z,20.28
2018-07-07T00:40:54.460Z,20.40
2018-07-07T00:43:22.819Z,20.27
2018-07-07T00:45:51.191Z,20.60
2018-07-07T00:48:19.569Z,20.34
2018-07-07T00:50:48.053Z,20.34
2018-07-07T00:53:16.405Z,20.16
2018-07-07T00:55:44.746Z,20.29
2018-07-07T00:58:13.939Z,20.23
2018-07-07T01:00:50.981Z,20.19
2018-07-07T01:03:19.651Z,20.44
2018-07-07T01:05:48.689Z,20.02
2018-07-07T01:08:17.891Z,20.49
2018-07-07T01:10:46.256Z,19.98
2018-07-07T01:13:15.675Z,20.38
2018-07-07T01:15:44.017Z,20.31
2018-07-07T01:18:12.301Z,20.01
2018-07-07T01:20:40.673Z,19.98
2018-07-07T01:23:09.061Z,20.54
2018-07-07T01:25:37.401Z,20.59
2018-07-07T01:28:06.277Z,19.89
2018-07-07T01:30:34.894Z,19.86
2018-07-07T01:33:03.285Z,20.50
2018-07-07T01:35:31.693Z,20.26
2018-07-07T01:38:00.036Z,20.01
2018-07-07T01:40:28.437Z,19.78
2018-07-07T01:42:56.749Z,19.40
2018-07-07T01:45:25.128Z,19.23
2018-07-07T01:47:53.445Z,19.06
2018-07-07T01:50:21.766Z,19.12
2018-07-07T01:52:50.306Z,19.16
2018-07-07T01:55:18.651Z,19.72
2018-07-07T01:57:46.968Z,19.57
2018-07-07T02:00:15.307Z,19.46
2018-07-07T02:02:43.706Z,19.69
2018-07-07T02:05:12.078Z,19.67
2018-07-07T02:07:40.357Z,19.42
2018-07-07T02:10:08.802Z,19.35
2018-07-07T02:12:37.271Z,18.97
2018-07-07T02:15:05.941Z,19.71
2018-07-07T02:17:34.288Z,19.29
2018-07-07T02:20:02.676Z,19.28
2018-07-07T02:22:31.001Z,19.05
2018-07-07T02:24:59.308Z,19.18
2018-07-07T02:27:27.737Z,18.97
2018-07-07T02:29:56.113Z,18.89
2018-07-07T02:32:24.437Z,18.73
2018-07-07T02:34:52.764Z,18.86
2018-07-07T02:37:21.127Z,18.93
2018-07-07T02:39:49.499Z,18.75
2018-07-07T02:42:17.887Z,19.01
2018-07-07T02:44:46.232Z,18.71
2018-07-07T02:47:14.677Z,18.69
2018-07-07T02:49:43.040Z,19.02
2018-07-07T02:52:11.390Z,19.12
2018-07-07T02:54:39.744Z,18.99
2018-07-07T02:57:08.074Z,18.70
2018-07-07T02:59:36.461Z,18.62
2018-07-07T03:02:04.753Z,18.56
2018-07-07T03:04:33.133Z,19.18
2018-07-07T03:07:01.498Z,18.95
2018-07-07T03:09:29.860Z,18.83
2018-07-07T03:11:58.241Z,18.73
2018-07-07T03:14:26.568Z,19.07
2018-07-07T03:16:55.325Z,19.43
2018-07-07T03:19:23.793Z,19.15
2018-07-07T03:21:52.083Z,18.96
2018-07-07T03:24:20.493Z,18.70
2018-07-07T03:26:48.828Z,18.60
2018-07-07T03:29:17.271Z,18.84
2018-07-07T03:31:45.556Z,18.65
2018-07-07T03:34:14.024Z,18.67
2018-07-07T03:36:42.287Z,18.99
2018-07-07T03:39:11.173Z,18.80
2018-07-07T03:41:40.183Z,19.06
2018-07-07T03:44:08.626Z,18.96
2018-07-07T03:46:37.145Z,19.05
2018-07-07T03:49:05.840Z,19.23
2018-07-07T03:51:34.438Z,19.22
2018-07-07T03:54:02.781Z,19.49
2018-07-07T03:56:31.101Z,19.33
2018-07-07T03:58:59.464Z,18.84
2018-07-07T04:01:27.936Z,18.73
2018-07-07T04:03:56.235Z,18.64
2018-07-07T04:06:24.641Z,18.83
2018-07-07T04:08:52.966Z,19.11
2018-07-07T04:11:21.296Z,19.04
2018-07-07T04:13:49.651Z,19.21
2018-07-07T04:16:18.055Z,19.32
2018-07-07T04:18:46.384Z,19.54
2018-07-07T04:21:14.700Z,19.62
2018-07-07T04:23:43.239Z,19.68
2018-07-07T04:26:11.612Z,19.88
2018-07-07T04:28:40.002Z,19.63
2018-07-07T04:31:08.389Z,19.43
2018-07-07T04:33:36.694Z,19.51
2018-07-07T04:36:05.258Z,20.05
2018-07-07T04:38:33.571Z,19.98
2018-07-07T04:41:01.976Z,19.68
2018-07-07T04:43:30.310Z,19.19
2018-07-07T04:45:58.670Z,19.11
2018-07-07T04:48:26.994Z,19.07
2018-07-07T04:50:55.375Z,18.75
2018-07-07T04:53:23.756Z,18.73
2018-07-07T04:55:52.403Z,18.86
2018-07-07T04:58:20.721Z,18.93
2018-07-07T05:00:49.112Z,19.07
2018-07-07T05:03:17.429Z,19.11
2018-07-07T05:05:45.713Z,19.31
2018-07-07T05:08:14.061Z,19.40
2018-07-07T05:10:42.451Z,19.55
2018-07-07T05:13:10.846Z,19.75
2018-07-07T05:15:39.246Z,20.02
2018-07-07T05:18:07.573Z,19.93
2018-07-07T05:20:35.943Z,20.05
2018-07-07T05:23:04.298Z,20.02
2018-07-07T05:25:32.607Z,19.68
2018-07-07T05:28:00.951Z,19.73
2018-07-07T05:30:31.910Z,19.89
2018-07-07T05:33:00.964Z,19.88
2018-07-07T05:35:29.231Z,19.93
2018-07-07T05:37:58.340Z,20.35
2018-07-07T05:40:26.856Z,20.13
2018-07-07T05:42:55.426Z,20.13
2018-07-07T05:45:23.788Z,20.16
2018-07-07T05:47:52.312Z,19.95
2018-07-07T05:50:20.631Z,20.15
2018-07-07T05:52:48.951Z,20.28
2018-07-07T05:55:17.417Z,20.41
2018-07-07T05:57:45.754Z,20.61
2018-07-07T06:00:14.755Z,20.83
2018-07-07T06:02:43.068Z,20.87
2018-07-07T06:05:11.636Z,20.95
2018-07-07T06:07:40.216Z,21.25
2018-07-07T06:10:08.903Z,21.53
2018-07-07T06:12:37.625Z,21.53
2018-07-07T06:15:06.726Z,21.73
2018-07-07T06:17:35.055Z,22.08
2018-07-07T06:20:04.232Z,22.91
2018-07-07T06:22:32.578Z,23.36
2018-07-07T06:25:00.877Z,23.87
2018-07-07T06:27:29.465Z,24.47
2018-07-07T06:29:57.914Z,24.92
2018-07-07T06:32:26.400Z,24.55
2018-07-07T06:34:54.924Z,24.81
2018-07-07T06:37:23.277Z,24.46
2018-07-07T06:39:51.649Z,24.39
2018-07-07T06:42:20.020Z,24.32
2018-07-07T06:44:48.421Z,24.50
2018-07-07T06:47:16.767Z,23.91
2018-07-07T06:49:45.353Z,24.12
2018-07-07T06:52:13.718Z,24.41
2018-07-07T06:54:42.156Z,24.23
2018-07-07T06:57:10.495Z,24.17
2018-07-07T06:59:38.959Z,23.62
2018-07-07T07:02:07.622Z,23.76
2018-07-07T07:04:38.912Z,23.34
2018-07-07T07:07:15.606Z,23.29
2018-07-07T07:12:28.731Z,24.21
2018-07-07T07:14:56.990Z,24.28
2018-07-07T07:17:25.335Z,24.16
2018-07-07T07:19:53.771Z,24.22
2018-07-07T07:22:26.145Z,24.79
2018-07-07T07:25:00.912Z,24.73
2018-07-07T07:27:30.376Z,24.98
2018-07-07T07:29:58.720Z,25.39
2018-07-07T07:32:27.203Z,25.87
2018-07-07T07:34:55.695Z,25.75
2018-07-07T07:37:24.111Z,26.57
2018-07-07T07:39:52.412Z,26.52
2018-07-07T07:42:20.797Z,25.99
2018-07-07T07:44:49.425Z,26.14
2018-07-07T07:47:17.940Z,26.54
2018-07-07T07:49:46.305Z,26.67
2018-07-07T07:52:14.647Z,26.65
2018-07-07T07:54:42.991Z,27.40
2018-07-07T07:57:11.349Z,26.95
2018-07-07T07:59:39.837Z,27.41
2018-07-07T08:02:08.155Z,27.69
2018-07-07T08:04:36.616Z,27.88
2018-07-07T08:07:04.999Z,26.75
2018-07-07T08:09:33.419Z,26.52
2018-07-07T08:12:01.838Z,26.76
2018-07-07T08:14:30.193Z,26.66
2018-07-07T08:16:58.578Z,27.22
2018-07-07T08:19:27.529Z,27.75
2018-07-07T08:21:55.832Z,27.39
2018-07-07T08:24:24.165Z,27.55
2018-07-07T08:26:52.754Z,27.54
2018-07-07T08:29:21.063Z,27.52
2018-07-07T08:31:49.578Z,27.48
2018-07-07T08:34:18.241Z,27.66
2018-07-07T08:36:46.891Z,28.23
2018-07-07T08:39:15.274Z,28.62
2018-07-07T08:41:44.289Z,29.18
2018-07-07T08:44:13.141Z,29.46
2018-07-07T08:46:42.096Z,29.63
2018-07-07T08:49:10.605Z,29.21
2018-07-07T08:51:38.856Z,29.36
2018-07-07T08:54:07.153Z,29.17
2018-07-07T08:56:35.465Z,29.22
2018-07-07T08:59:03.764Z,29.59
2018-07-07T09:01:32.075Z,28.74
2018-07-07T09:04:00.524Z,29.25
2018-07-07T09:06:28.925Z,28.90
2018-07-07T09:08:57.383Z,29.23
2018-07-07T09:11:25.797Z,29.24
2018-07-07T09:13:54.142Z,29.33
2018-07-07T09:16:24.871Z,29.85
2018-07-07T09:18:53.565Z,29.33
2018-07-07T09:21:23.258Z,29.20
2018-07-07T09:23:51.995Z,29.17
2018-07-07T09:26:38.306Z,29.77
2018-07-07T09:29:15.156Z,29.60
2018-07-07T09:31:54.298Z,30.28
2018-07-07T09:34:24.781Z,30.10
2018-07-07T09:36:56.331Z,29.85
2018-07-07T09:39:24.772Z,30.31
2018-07-07T09:41:53.905Z,30.43
2018-07-07T09:44:25.554Z,31.25
2018-07-07T09:46:54.442Z,31.01
2018-07-07T09:49:22.967Z,31.90
2018-07-07T09:51:51.368Z,31.87
2018-07-07T09:54:19.720Z,31.71
2018-07-07T09:56:48.747Z,31.59
2018-07-07T09:59:17.116Z,31.65
2018-07-07T10:01:45.509Z,31.35
2018-07-07T10:04:13.926Z,31.61
2018-07-07T10:06:42.258Z,31.96
2018-07-07T10:09:10.713Z,31.60
2018-07-07T10:11:39.110Z,31.45
2018-07-07T10:14:07.416Z,30.85
2018-07-07T10:16:35.717Z,30.69
2018-07-07T10:19:04.108Z,31.23
2018-07-07T10:21:36.834Z,31.45
2018-07-07T10:24:05.453Z,32.12
2018-07-07T10:26:33.689Z,31.97
2018-07-07T10:29:01.983Z,32.32
2018-07-07T10:31:30.522Z,32.24
2018-07-07T10:33:59.192Z,32.31
2018-07-07T10:36:27.554Z,32.08
2018-07-07T10:38:55.888Z,32.58
2018-07-07T10:41:24.229Z,32.27
2018-07-07T10:43:52.506Z,32.27
2018-07-07T10:46:20.806Z,31.75
2018-07-07T10:48:49.288Z,31.43
2018-07-07T10:51:17.568Z,31.49
2018-07-07T10:53:45.993Z,30.65
2018-07-07T10:56:14.325Z,31.26
2018-07-07T10:58:42.645Z,31.04
2018-07-07T11:01:11.083Z,31.41
2018-07-07T11:03:39.353Z,31.22
2018-07-07T11:06:07.757Z,31.46
2018-07-07T11:08:36.119Z,31.77
2018-07-07T11:11:04.517Z,31.73
2018-07-07T11:13:32.856Z,31.65
2018-07-07T11:16:01.325Z,31.42
2018-07-07T11:18:29.669Z,31.29
2018-07-07T11:20:57.941Z,31.27
2018-07-07T11:23:26.273Z,31.50
2018-07-07T11:25:54.876Z,32.15
2018-07-07T11:28:23.269Z,32.37
2018-07-07T11:30:51.846Z,33.65
2018-07-07T11:33:20.264Z,33.80
2018-07-07T11:35:48.522Z,33.33
2018-07-07T11:38:16.925Z,33.44
2018-07-07T11:40:45.277Z,33.49
2018-07-07T11:43:13.629Z,33.70
2018-07-07T11:45:41.989Z,33.15
2018-07-07T11:48:10.517Z,32.77
2018-07-07T11:50:38.936Z,32.39
2018-07-07T11:53:07.306Z,33.15
2018-07-07T11:55:35.601Z,34.12
2018-07-07T11:58:04.064Z,34.53
2018-07-07T12:00:46.865Z,35.33
2018-07-07T12:03:15.285Z,36.29
2018-07-07T12:05:43.745Z,36.43
2018-07-07T12:08:13.992Z,35.75
2018-07-07T12:10:40.628Z,36.27
2018-07-07T12:13:09.253Z,36.78
2018-07-07T12:24:16.173Z,39.94
2018-07-07T12:27:15.650Z,39.26
2018-07-07T12:29:44.494Z,39.99
2018-07-07T12:32:13.043Z,40.21
2018-07-07T12:34:41.443Z,40.55
2018-07-07T12:37:09.705Z,41.90
2018-07-07T12:39:38.702Z,42.58
2018-07-07T12:42:07.093Z,41.73
2018-07-07T12:44:35.421Z,40.26
2018-07-07T12:47:03.739Z,41.66
2018-07-07T12:49:32.120Z,42.15
2018-07-07T12:52:00.458Z,42.10
2018-07-07T12:54:28.793Z,42.13
2018-07-07T12:56:57.102Z,39.26
2018-07-07T12:59:25.399Z,36.71
2018-07-07T13:01:53.891Z,36.18
2018-07-07T13:04:22.262Z,36.94
2018-07-07T13:06:50.617Z,37.89
2018-07-07T13:09:18.984Z,37.80
2018-07-07T13:11:47.220Z,39.44
2018-07-07T13:14:15.651Z,40.92
2018-07-07T13:16:44.016Z,42.26
2018-07-07T13:19:12.546Z,43.19
2018-07-07T13:21:41.136Z,43.72
2018-07-07T13:24:11.194Z,43.62
2018-07-07T13:26:39.592Z,42.84
2018-07-07T13:29:07.881Z,45.19
2018-07-07T13:31:36.324Z,46.46
2018-07-07T13:34:04.736Z,47.37
2018-07-07T13:36:33.068Z,47.85
2018-07-07T13:39:01.322Z,47.01
2018-07-07T13:41:29.709Z,47.97
2018-07-07T13:43:58.057Z,48.90
2018-07-07T13:46:26.388Z,46.77
2018-07-07T13:48:54.705Z,45.19
2018-07-07T13:51:23.393Z,44.62
2018-07-07T13:53:51.739Z,45.59
2018-07-07T13:56:20.054Z,44.30
2018-07-07T13:58:48.294Z,42.44
2018-07-07T14:01:16.827Z,43.27
2018-07-07T14:03:45.353Z,39.64
2018-07-07T14:06:13.746Z,41.45
2018-07-07T14:08:42.189Z,42.60
2018-07-07T14:11:10.536Z,43.15
2018-07-07T14:13:38.881Z,44.25
2018-07-07T14:16:07.449Z,45.93
2018-07-07T14:18:35.820Z,48.19
2018-07-07T14:21:04.160Z,49.10
2018-07-07T14:23:32.669Z,48.40
2018-07-07T14:26:00.944Z,48.63
2018-07-07T14:28:29.245Z,48.21
2018-07-07T14:30:57.576Z,50.25
2018-07-07T14:33:25.877Z,48.28
2018-07-07T14:35:54.190Z,42.25
2018-07-07T14:38:30.561Z,38.95
2018-07-07T14:41:11.177Z,41.99
2018-07-07T14:43:53.896Z,47.24
2018-07-07T14:46:22.781Z,51.06
2018-07-07T14:48:51.337Z,52.40
2018-07-07T14:51:19.689Z,54.41
2018-07-07T14:53:48.251Z,52.82
2018-07-07T14:56:18.024Z,53.11
2018-07-07T14:58:46.541Z,50.49
2018-07-07T15:01:14.928Z,51.52
2018-07-07T15:03:43.741Z,50.45
2018-07-07T15:06:11.968Z,51.54
2018-07-07T15:08:40.400Z,51.69
2018-07-07T15:11:09.321Z,52.20
2018-07-07T15:13:38.264Z,48.39
2018-07-07T15:16:07.057Z,51.05
2018-07-07T15:18:35.875Z,50.66
2018-07-07T15:21:04.572Z,50.96
2018-07-07T15:23:33.036Z,51.59
2018-07-07T15:26:01.801Z,48.37
2018-07-07T15:28:30.183Z,49.87
2018-07-07T15:30:58.760Z,49.31
2018-07-07T15:33:27.119Z,47.95
2018-07-07T15:35:55.417Z,51.18
2018-07-07T15:38:23.771Z,49.19
2018-07-07T15:40:52.129Z,50.41
2018-07-07T15:43:20.421Z,49.75
2018-07-07T15:45:48.747Z,50.63
2018-07-07T15:48:17.394Z,49.54
2018-07-07T15:50:45.799Z,47.80
2018-07-07T15:53:14.191Z,45.83
2018-07-07T15:55:42.423Z,47.94
2018-07-07T15:58:10.802Z,50.17
2018-07-07T16:00:39.134Z,52.63
2018-07-07T16:03:07.449Z,50.16
2018-07-07T16:05:35.707Z,50.14
2018-07-07T16:08:04.135Z,49.43
2018-07-07T16:10:32.602Z,49.63
2018-07-07T16:13:00.924Z,48.98
2018-07-07T16:15:29.265Z,47.80
2018-07-07T16:17:57.605Z,49.15
2018-07-07T16:20:25.869Z,42.31
2018-07-07T16:22:54.255Z,39.33
2018-07-07T16:25:22.665Z,37.78
2018-07-07T16:27:51.029Z,36.16
2018-07-07T16:30:19.269Z,40.81
2018-07-07T16:32:47.601Z,43.43
2018-07-07T16:35:15.955Z,43.74
2018-07-07T16:37:44.360Z,43.41
2018-07-07T16:40:12.702Z,45.86
2018-07-07T16:42:42.428Z,44.26
2018-07-07T16:45:10.923Z,43.78
2018-07-07T16:47:39.364Z,39.00
2018-07-07T16:50:07.797Z,36.15
2018-07-07T16:52:36.221Z,35.53
2018-07-07T16:55:04.590Z,38.86
2018-07-07T16:57:32.996Z,40.53
2018-07-07T17:00:01.390Z,39.92
2018-07-07T17:02:30.294Z,42.57
2018-07-07T17:04:58.595Z,43.81
2018-07-07T17:07:27.122Z,41.25
2018-07-07T17:09:55.519Z,39.87
2018-07-07T17:12:24.253Z,38.39
2018-07-07T17:14:52.654Z,37.09
2018-07-07T17:17:21.872Z,34.98
2018-07-07T17:19:50.181Z,34.27
2018-07-07T17:22:18.614Z,32.89
2018-07-07T17:24:47.089Z,32.55
2018-07-07T17:27:16.028Z,32.47
2018-07-07T17:29:44.415Z,32.23
2018-07-07T17:32:12.737Z,36.16
2018-07-07T17:34:42.221Z,38.10
2018-07-07T17:37:10.602Z,38.62
2018-07-07T17:39:38.934Z,40.29
2018-07-07T17:42:07.888Z,40.28
2018-07-07T17:44:36.247Z,40.95
2018-07-07T17:47:04.598Z,40.52
2018-07-07T17:49:33.050Z,38.62
2018-07-07T17:52:01.436Z,39.88
2018-07-07T17:54:30.353Z,40.28
2018-07-07T17:56:59.100Z,39.85
2018-07-07T17:59:27.511Z,39.21
2018-07-07T18:01:55.879Z,38.72
2018-07-07T18:04:24.292Z,37.40
2018-07-07T18:06:52.860Z,34.89
2018-07-07T18:09:21.148Z,32.92
2018-07-07T18:11:49.987Z,31.80
2018-07-07T18:14:18.426Z,31.01
2018-07-07T18:16:51.934Z,30.26
2018-07-07T18:19:21.064Z,29.58
2018-07-07T18:21:50.159Z,29.13
2018-07-07T18:24:18.682Z,28.42
2018-07-07T18:26:47.769Z,28.52
2018-07-07T18:29:16.276Z,28.30
2018-07-07T18:31:44.633Z,28.12
2018-07-07T18:34:13.076Z,28.04
2018-07-07T18:36:41.373Z,27.98
2018-07-07T18:39:09.733Z,27.80
2018-07-07T18:41:38.801Z,27.60
2018-07-07T18:44:07.244Z,27.40
2018-07-07T18:46:35.761Z,27.18
2018-07-07T18:49:04.797Z,27.01
2018-07-07T18:51:33.318Z,26.99
2018-07-07T18:54:03.773Z,26.90
2018-07-07T18:56:33.110Z,27.16
2018-07-07T18:59:01.565Z,26.85
2018-07-07T19:01:29.939Z,26.54
2018-07-07T19:03:58.855Z,26.25
2018-07-07T19:06:27.164Z,26.10
2018-07-07T19:09:01.475Z,25.92
2018-07-07T19:11:29.846Z,25.92
2018-07-07T19:13:58.156Z,25.93
2018-07-07T19:16:26.679Z,25.70
2018-07-07T19:18:55.163Z,25.64
2018-07-07T19:23:32.045Z,25.49
2018-07-07T19:26:05.946Z,25.22
2018-07-07T19:28:34.259Z,25.21
2018-07-07T19:31:02.563Z,25.18
2018-07-07T19:33:36.124Z,25.14
2018-07-07T19:36:09.873Z,25.06
2018-07-07T19:38:38.725Z,25.02
2018-07-07T19:41:07.683Z,24.98
2018-07-07T19:43:38.419Z,24.93
2018-07-07T19:46:06.729Z,24.99
2018-07-07T19:48:35.181Z,24.92
2018-07-07T19:51:03.621Z,24.88
2018-07-07T19:53:32.177Z,24.84
2018-07-07T19:56:00.517Z,24.92
2018-07-07T19:58:28.884Z,24.98
2018-07-07T20:00:57.216Z,24.97
2018-07-07T20:03:25.587Z,25.16
2018-07-07T20:05:54.188Z,25.13
2018-07-07T20:08:22.481Z,25.23
2018-07-07T20:10:51.038Z,25.26
2018-07-07T20:13:19.534Z,25.24
2018-07-07T20:16:19.598Z,25.32
2018-07-07T20:19:23.047Z,25.24
2018-07-07T20:21:55.911Z,25.02
2018-07-07T20:24:40.158Z,25.01
2018-07-07T20:27:14.430Z,25.04
2018-07-07T20:29:43.196Z,24.94
2018-07-07T20:32:16.906Z,24.82
2018-07-07T20:34:45.273Z,24.65
2018-07-07T20:37:13.702Z,24.61
2018-07-07T20:39:42.148Z,24.58
2018-07-07T20:42:10.739Z,24.48
2018-07-07T20:44:39.104Z,24.42
2018-07-07T20:47:07.617Z,24.32
2018-07-07T20:49:35.947Z,24.27
2018-07-07T20:52:04.517Z,24.09
2018-07-07T20:54:33.325Z,24.09
2018-07-07T20:57:02.332Z,24.01
2018-07-07T20:59:31.467Z,23.97
2018-07-07T21:02:00.066Z,23.94
2018-07-07T21:04:28.319Z,23.91
2018-07-07T21:06:56.956Z,23.90
2018-07-07T21:09:25.313Z,23.77
2018-07-07T21:11:53.951Z,23.68
2018-07-07T21:14:22.499Z,23.69
2018-07-07T21:16:51.024Z,23.68
2018-07-07T21:19:19.505Z,23.64
2018-07-07T21:21:47.928Z,23.53
2018-07-07T21:24:16.456Z,23.46
2018-07-07T21:26:44.963Z,23.31
2018-07-07T21:29:13.445Z,23.20
2018-07-07T21:31:41.821Z,23.13
2018-07-07T21:34:10.125Z,22.94
2018-07-07T21:36:38.578Z,22.88
2018-07-07T21:39:07.130Z,22.73
2018-07-07T21:41:35.610Z,22.54
2018-07-07T21:44:04.097Z,22.46
2018-07-07T21:46:32.571Z,22.38
2018-07-07T21:49:00.987Z,22.27
2018-07-07T21:51:29.395Z,22.15
2018-07-07T21:53:57.887Z,22.01
2018-07-07T21:56:26.401Z,21.92
2018-07-07T21:59:00.107Z,21.89
2018-07-07T22:02:11.917Z,21.82
2018-07-07T22:04:45.518Z,21.67
2018-07-07T22:07:19.220Z,21.60
2018-07-07T22:09:47.730Z,21.60
2018-07-07T22:12:16.104Z,21.56
2018-07-07T22:14:44.582Z,21.55
2018-07-07T22:17:13.042Z,21.52
2018-07-07T22:19:41.529Z,21.47
2018-07-07T22:22:10.832Z,21.41
2018-07-07T22:24:40.128Z,21.49
2018-07-07T22:27:09.716Z,21.41
2018-07-07T22:29:38.320Z,21.28
2018-07-07T22:32:10.968Z,21.22
2018-07-07T22:34:40.142Z,21.17
2018-07-07T22:37:08.920Z,21.10
2018-07-07T22:39:39.493Z,21.05
2018-07-07T22:42:09.149Z,20.98
2018-07-07T22:44:38.241Z,21.00
2018-07-07T22:47:06.574Z,20.94
2018-07-07T22:49:35.091Z,20.89
2018-07-07T22:52:03.784Z,20.84
2018-07-07T22:54:32.072Z,20.83
2018-07-07T22:57:00.497Z,20.77
2018-07-07T22:59:28.994Z,20.70
2018-07-07T23:01:57.409Z,20.66
2018-07-07T23:04:25.723Z,20.60
2018-07-07T23:06:54.107Z,20.67
2018-07-07T23:09:22.601Z,20.59
2018-07-07T23:11:50.929Z,20.60
2018-07-07T23:14:19.210Z,20.64
2018-07-07T23:16:47.531Z,20.75
2018-07-07T23:19:15.979Z,20.82
2018-07-07T23:21:44.308Z,20.90
2018-07-07T23:24:12.661Z,20.92
2018-07-07T23:26:41.083Z,21.19
2018-07-07T23:29:09.397Z,21.30
2018-07-07T23:31:38.332Z,21.37
2018-07-07T23:34:06.692Z,21.32
2018-07-07T23:36:35.092Z,21.25
2018-07-07T23:39:03.997Z,21.29
2018-07-07T23:41:32.290Z,21.20
2018-07-07T23:44:00.625Z,21.08
2018-07-07T23:46:29.011Z,21.05
2018-07-07T23:48:57.448Z,20.84
2018-07-07T23:51:25.789Z,20.70
2018-07-07T23:53:54.133Z,20.54
2018-07-07T23:56:22.444Z,20.37
2018-07-07T23:58:50.980Z,20.27
